Time;durP1;ratioP1;P1;durP2;ratioP2;P2;SDS_P1;SDS_P2;PMS_P1;PMS_P2;Temp;Humidity;BMP_temperature;BMP_pressure;BME280_temperature;BME280_humidity;BME280_pressure;Samples;Min_cycle;Max_cycle;Signal;HPM_P1;HPM_P2
2024/01/31 00:01:43;;;;;;;30.10;17.60;;;;;;;4.27;70.33;102106.48;105054;1288;71536;-54
2024/01/31 00:04:29;;;;;;;25.50;16.40;;;;;;;4.24;70.69;102108.24;105162;1287;61281;-54
2024/01/31 00:07:16;;;;;;;27.90;17.40;;;;;;;4.21;70.60;102112.92;105103;1289;61148;-53
2024/01/31 00:10:03;;;;;;;33.10;18.30;;;;;;;4.21;71.05;102116.15;105013;1288;77384;-55
2024/01/31 00:12:49;;;;;;;26.80;17.80;;;;;;;4.15;71.93;102117.52;104965;1288;67131;-55
2024/01/31 00:15:36;;;;;;;33.70;19.50;;;;;;;4.13;71.74;102114.36;104969;1288;71278;-54
2024/01/31 00:18:22;;;;;;;30.30;17.80;;;;;;;4.11;71.70;102111.05;105050;1288;61061;-53
2024/01/31 00:21:08;;;;;;;30.30;18.20;;;;;;;4.10;72.18;102109.84;104960;1288;61787;-54
2024/01/31 00:23:54;;;;;;;31.60;16.90;;;;;;;4.08;72.05;102103.27;104975;1288;73204;-54
2024/01/31 00:26:41;;;;;;;26.50;16.80;;;;;;;4.04;71.56;102101.61;105047;1288;66666;-53
2024/01/31 00:29:27;;;;;;;;;;;;;;;4.02;72.58;102104.77;105029;1288;73052;-55
2024/01/31 00:32:13;;;;;;;28.80;16.90;;;;;;;3.99;71.92;102102.30;105013;1288;61244;-55
2024/01/31 00:34:59;;;;;;;29.70;17.10;;;;;;;3.97;72.80;102100.67;105107;1290;61236;-55
2024/01/31 00:37:46;;;;;;;33.10;17.70;;;;;;;3.93;72.70;102101.56;105016;1288;75012;-54
2024/01/31 00:40:32;;;;;;;30.40;17.60;;;;;;;3.91;72.53;102103.02;104962;1288;68766;-55
2024/01/31 00:43:18;;;;;;;27.90;16.70;;;;;;;3.87;72.79;102105.80;104999;1293;71209;-55
2024/01/31 00:46:04;;;;;;;33.70;20.30;;;;;;;3.86;72.98;102109.32;104953;1288;61067;-55
2024/01/31 00:48:51;;;;;;;29.50;18.30;;;;;;;3.84;74.18;102110.30;104983;1289;61133;-55
2024/01/31 00:51:37;;;;;;;27.20;17.30;;;;;;;3.85;73.26;102108.64;104965;1288;77312;-55
2024/01/31 00:54:24;;;;;;;33.70;18.80;;;;;;;3.86;73.14;102105.92;104979;1288;67271;-54
2024/01/31 00:57:10;;;;;;;32.20;18.70;;;;;;;3.87;74.67;102106.98;104963;1289;73727;-53
2024/01/31 00:59:56;;;;;;;31.40;19.20;;;;;;;3.83;74.75;102103.08;104999;1288;61277;-52
2024/01/31 01:02:42;;;;;;;25.40;16.80;;;;;;;3.86;73.82;102101.84;105030;1288;61326;-55
2024/01/31 01:05:29;;;;;;;28.20;18.20;;;;;;;3.84;74.03;102101.25;104943;1288;73313;-54
2024/01/31 01:08:15;;;;;;;30.60;18.30;;;;;;;3.86;74.38;102095.86;105015;1288;71119;-53
2024/01/31 01:11:01;;;;;;;28.70;17.70;;;;;;;3.84;73.81;102092.90;105053;1292;72895;-55
2024/01/31 01:13:48;;;;;;;29.80;18.70;;;;;;;3.85;73.80;102092.94;104952;1288;61135;-54
2024/01/31 01:16:36;;;;;;;27.50;16.50;;;;;;;3.86;74.51;102090.23;105003;1288;63597;-54
2024/01/31 01:19:22;;;;;;;29.60;18.00;;;;;;;3.86;73.83;102086.31;104998;1288;73918;-55
2024/01/31 01:22:08;;;;;;;32.50;18.70;;;;;;;3.87;74.33;102086.86;104565;1288;621333;-53
2024/01/31 01:24:55;;;;;;;28.20;17.40;;;;;;;3.86;73.83;102086.33;105018;1289;73893;-54
2024/01/31 01:27:45;;;;;;;30.60;17.50;;;;;;;3.87;75.43;102089.06;104952;1288;61127;-55
2024/01/31 01:30:32;;;;;;;33.40;17.80;;;;;;;3.87;74.88;102087.88;104951;1291;61277;-53
2024/01/31 01:33:18;;;;;;;33.00;18.40;;;;;;;3.88;74.98;102082.96;104971;1288;74214;-56
2024/01/31 01:36:05;;;;;;;33.50;18.90;;;;;;;3.89;75.22;102083.19;105010;1292;66328;-55
2024/01/31 01:38:51;;;;;;;32.10;19.00;;;;;;;3.90;75.08;102086.63;105052;1291;71237;-54
2024/01/31 01:41:38;;;;;;;26.90;17.50;;;;;;;3.88;75.16;102088.25;104951;1289;61288;-51
2024/01/31 01:44:24;;;;;;;32.30;18.90;;;;;;;3.91;75.17;102088.87;104869;1288;62873;-55
2024/01/31 01:47:12;;;;;;;31.80;18.60;;;;;;;3.95;74.81;102093.45;104976;1288;73510;-55
2024/01/31 01:49:58;;;;;;;30.50;19.30;;;;;;;4.00;75.16;102089.72;105004;1288;67427;-51
2024/01/31 01:52:45;;;;;;;34.40;19.40;;;;;;;4.06;75.56;102091.42;105006;1289;76125;-55
2024/01/31 01:55:32;;;;;;;30.20;17.90;;;;;;;4.11;75.74;102094.70;101355;1290;5002449;-54
2024/01/31 01:58:18;;;;;;;32.50;19.20;;;;;;;4.17;75.60;102094.52;105005;1288;61240;-54
2024/01/31 02:01:05;;;;;;;31.80;18.00;;;;;;;4.21;75.89;102097.58;104947;1288;73229;-55
2024/01/31 02:03:55;;;;;;;31.00;17.40;;;;;;;4.24;76.27;102095.94;104936;1288;67435;-52
2024/01/31 02:06:41;;;;;;;28.40;19.50;;;;;;;4.28;76.21;102094.55;106174;1288;71407;-55
2024/01/31 02:09:28;;;;;;;31.20;17.80;;;;;;;4.31;75.93;102094.33;105796;1288;60530;-55
2024/01/31 02:12:14;;;;;;;27.80;18.00;;;;;;;4.35;76.35;102097.69;104992;1288;62783;-52
2024/01/31 02:15:00;;;;;;;32.50;17.80;;;;;;;4.39;76.11;102093.23;104970;1288;73730;-54
2024/01/31 02:17:46;;;;;;;;;;;;;;;4.41;76.15;102093.79;104985;1288;67723;-55
2024/01/31 02:20:35;;;;;;;29.30;17.10;;;;;;;4.45;76.43;102092.90;104960;1288;71244;-55
2024/01/31 02:23:22;;;;;;;33.20;18.40;;;;;;;4.47;76.24;102090.05;104940;1288;61231;-55
2024/01/31 02:26:08;;;;;;;28.90;19.30;;;;;;;4.48;76.11;102085.30;106220;1288;59695;-54
2024/01/31 02:28:54;;;;;;;27.00;17.00;;;;;;;4.49;76.12;102081.75;106264;1288;73882;-56
2024/01/31 02:31:40;;;;;;;29.20;17.50;;;;;;;4.53;76.13;102079.68;105473;1290;69091;-52
2024/01/31 02:34:26;;;;;;;30.80;16.60;;;;;;;4.58;76.06;102083.41;104955;1294;71172;-55
2024/01/31 02:37:12;;;;;;;26.30;16.50;;;;;;;4.61;76.43;102086.79;105797;1292;60136;-54
2024/01/31 02:40:00;;;;;;;31.20;18.30;;;;;;;4.63;76.29;102086.83;106119;1284;61160;-55
2024/01/31 02:42:46;;;;;;;28.30;17.40;;;;;;;4.66;76.35;102089.65;105337;1285;74700;-55
2024/01/31 02:45:33;;;;;;;32.70;17.80;;;;;;;4.66;76.66;102088.81;105328;1285;67987;-54
2024/01/31 02:48:20;;;;;;;28.80;16.80;;;;;;;4.67;76.61;102084.55;105314;1285;74078;-55
2024/01/31 02:51:06;;;;;;;29.50;18.10;;;;;;;4.70;76.55;102085.98;105393;1289;61556;-54
2024/01/31 02:53:52;;;;;;;28.70;17.70;;;;;;;4.66;76.63;102082.30;105433;1285;309596;-56
2024/01/31 02:56:38;;;;;;;29.80;17.80;;;;;;;4.61;76.38;102080.42;105346;1285;73812;-55
2024/01/31 02:59:24;;;;;;;29.70;18.10;;;;;;;4.52;77.20;102079.47;105364;1289;67373;-54
2024/01/31 03:02:13;;;;;;;23.20;15.60;;;;;;;4.48;76.50;102078.12;105324;1285;71220;-53
2024/01/31 03:05:00;;;;;;;25.20;16.00;;;;;;;4.40;76.95;102076.36;105298;1285;61177;-54
2024/01/31 03:07:46;;;;;;;26.80;17.40;;;;;;;4.44;77.57;102080.38;105411;1285;62623;-55
2024/01/31 03:10:32;;;;;;;29.60;15.50;;;;;;;4.42;77.37;102078.09;105551;1284;73245;-54
2024/01/31 03:13:18;;;;;;;25.40;16.90;;;;;;;4.39;77.83;102077.33;105572;1287;67199;-53
2024/01/31 03:16:05;;;;;;;26.90;16.40;;;;;;;4.40;78.14;102077.70;105546;1287;71402;-55
2024/01/31 03:18:53;;;;;;;;;;;;;;;4.44;78.35;102076.14;106591;1285;59263;-54
2024/01/31 03:21:39;;;;;;;30.30;17.10;;;;;;;4.49;77.91;102073.05;105537;1283;61262;-53
2024/01/31 03:24:26;;;;;;;31.70;17.40;;;;;;;4.51;78.01;102067.31;105503;1287;73462;-55
2024/01/31 03:27:12;;;;;;;27.60;17.40;;;;;;;4.54;78.65;102067.41;105553;1286;67259;-54
2024/01/31 03:30:01;;;;;;;26.00;17.70;;;;;;;4.56;78.24;102066.80;105524;1285;72109;-53
2024/01/31 03:32:48;;;;;;;27.60;17.90;;;;;;;4.57;79.26;102071.60;105581;1288;61865;-54
2024/01/31 03:35:34;;;;;;;25.30;17.10;;;;;;;4.58;78.53;102073.52;105612;1285;61111;-53
2024/01/31 03:38:20;;;;;;;33.70;18.30;;;;;;;4.61;78.49;102073.27;105538;1285;75994;-52
2024/01/31 03:41:07;;;;;;;30.20;18.40;;;;;;;4.60;79.00;102072.39;105593;1284;66422;-55
2024/01/31 03:43:55;;;;;;;29.50;17.20;;;;;;;4.60;78.60;102067.08;105545;1285;71226;-55
2024/01/31 03:46:41;;;;;;;26.70;17.10;;;;;;;4.60;78.89;102067.09;105857;1285;61164;-55
2024/01/31 03:49:27;;;;;;;31.00;16.90;;;;;;;4.61;79.53;102069.02;105624;1286;59760;-55
2024/01/31 03:52:14;;;;;;;25.30;17.20;;;;;;;4.62;79.41;102071.25;105571;1285;74409;-52
2024/01/31 03:55:00;;;;;;;25.50;17.10;;;;;;;4.60;79.10;102075.63;98197;1287;10002361;-56
2024/01/31 03:57:46;;;;;;;;;;;;;;;4.62;79.85;102073.83;105579;1284;61161;-55
2024/01/31 04:00:33;;;;;;;24.40;15.10;;;;;;;4.66;79.32;102073.09;105577;1286;73152;-55
2024/01/31 04:03:20;;;;;;;28.20;18.30;;;;;;;4.68;79.51;102078.08;105567;1284;70027;-54
2024/01/31 04:06:07;;;;;;;31.70;16.00;;;;;;;4.71;79.23;102083.95;105576;1286;72852;-52
2024/01/31 04:08:53;;;;;;;;;;;;;;;4.73;79.54;102079.42;105528;1286;60997;-55
2024/01/31 04:11:39;;;;;;;27.30;16.20;;;;;;;4.72;80.25;102080.41;105540;1285;62190;-51
2024/01/31 04:14:26;;;;;;;27.40;17.10;;;;;;;4.73;79.75;102090.02;105593;1284;73295;-54
2024/01/31 04:17:12;;;;;;;32.00;18.00;;;;;;;4.73;79.74;102088.82;105535;1285;69929;-55
2024/01/31 04:19:58;;;;;;;;;;;;;;;4.72;79.87;102085.39;105576;1284;72979;-55
2024/01/31 04:22:44;;;;;;;27.90;17.50;;;;;;;4.71;79.75;102082.42;105519;1285;61133;-55
2024/01/31 04:25:31;;;;;;;30.60;17.20;;;;;;;4.67;79.82;102086.94;105516;1286;61610;-52
2024/01/31 04:28:18;;;;;;;27.00;17.20;;;;;;;4.64;80.12;102090.46;105580;1286;77336;-55
2024/01/31 04:31:12;;;;;;;25.80;16.90;;;;;;;4.60;80.21;102087.75;105561;1285;69911;-55
2024/01/31 04:33:57;;;;;;;33.30;17.60;;;;;;;4.60;80.09;102089.64;106083;1283;71284;-54
2024/01/31 04:36:44;;;;;;;23.80;16.20;;;;;;;4.61;80.46;102089.15;105516;1286;61259;-52
2024/01/31 04:39:30;;;;;;;29.50;18.00;;;;;;;4.62;80.68;102089.36;105569;1284;61183;-54
2024/01/31 04:42:16;;;;;;;30.90;17.60;;;;;;;4.67;80.63;102088.98;105612;1287;73513;-51
2024/01/31 04:45:03;;;;;;;27.50;16.70;;;;;;;4.71;80.97;102085.49;105602;1286;67225;-53
2024/01/31 04:47:49;;;;;;;;;;;;;;;4.74;80.75;102082.54;105810;1284;71391;-55
2024/01/31 04:50:35;;;;;;;28.70;17.00;;;;;;;4.78;80.80;102086.60;105603;1286;61169;-53
2024/01/31 04:53:21;;;;;;;26.80;16.50;;;;;;;4.83;80.77;102081.11;105536;1285;60330;-54
2024/01/31 04:56:11;;;;;;;24.70;15.90;;;;;;;4.87;80.49;102085.31;105528;1286;73135;-54
2024/01/31 04:58:57;;;;;;;28.50;17.40;;;;;;;4.89;80.77;102086.42;105524;1286;69530;-55
2024/01/31 05:01:43;;;;;;;27.20;16.70;;;;;;;4.90;80.85;102087.81;105534;1286;71166;-54
2024/01/31 05:04:29;;;;;;;29.30;15.90;;;;;;;4.92;80.27;102087.20;105548;1285;63351;-54
2024/01/31 05:07:16;;;;;;;24.70;15.60;;;;;;;4.94;80.66;102089.98;105590;1284;62033;-52
2024/01/31 05:10:03;;;;;;;20.70;15.10;;;;;;;4.94;81.04;102094.09;105563;1287;75981;-54
2024/01/31 05:12:49;;;;;;;23.30;16.10;;;;;;;4.96;80.58;102093.98;105644;1285;68212;-55
2024/01/31 05:15:35;;;;;;;;;;;;;;;5.01;80.40;102095.33;105522;1286;71191;-55
2024/01/31 05:18:22;;;;;;;25.20;15.10;;;;;;;5.04;80.51;102094.56;105497;1284;61103;-55
2024/01/31 05:21:10;;;;;;;;;;;;;;;5.05;81.47;102099.05;105517;1285;61172;-54
2024/01/31 05:23:57;;;;;;;23.20;15.10;;;;;;;5.08;81.36;102100.33;105572;1285;73618;-53
2024/01/31 05:26:46;;;;;;;28.50;15.80;;;;;;;5.11;81.13;102101.27;105596;1286;67222;-55
2024/01/31 05:29:32;;;;;;;22.30;15.10;;;;;;;5.12;80.97;102100.28;105572;1286;71018;-55
2024/01/31 05:32:18;;;;;;;;;;;;;;;5.15;80.72;102104.99;105537;1286;61374;-55
2024/01/31 05:35:05;;;;;;;23.50;14.80;;;;;;;5.17;81.11;102105.38;105516;1284;61675;-54
2024/01/31 05:37:51;;;;;;;26.30;16.30;;;;;;;5.20;80.80;102105.14;105794;1285;73316;-52
2024/01/31 05:40:38;;;;;;;21.30;14.10;;;;;;;5.23;81.04;102101.78;105566;1283;70011;-52
2024/01/31 05:43:24;;;;;;;21.70;14.20;;;;;;;5.25;81.24;102101.67;105558;1286;72576;-55
2024/01/31 05:46:15;;;;;;;20.90;13.00;;;;;;;5.26;81.33;102106.00;105580;1283;61161;-55
2024/01/31 05:49:02;;;;;;;21.10;13.80;;;;;;;5.28;81.37;102105.02;105568;1283;61221;-56
2024/01/31 05:51:49;;;;;;;;;;;;;;;5.30;81.30;102106.77;105629;1286;74409;-55
2024/01/31 05:54:38;;;;;;;18.80;13.40;;;;;;;5.33;80.99;102104.99;105381;1285;67604;-55
2024/01/31 05:57:24;;;;;;;23.50;13.30;;;;;;;5.35;81.31;102110.33;105377;1285;71842;-55
2024/01/31 06:00:13;;;;;;;19.40;13.00;;;;;;;5.37;81.22;102105.77;105372;1284;61125;-54
2024/01/31 06:03:00;;;;;;;23.40;12.50;;;;;;;5.38;81.41;102107.20;105448;1286;59563;-52
2024/01/31 06:05:46;;;;;;;;;;;;;;;5.41;81.30;102100.77;105369;1286;74296;-54
2024/01/31 06:08:35;;;;;;;;;;;;;;;5.40;81.38;102100.39;105513;1286;67570;-55
2024/01/31 06:11:21;;;;;;;16.10;12.50;;;;;;;5.44;81.46;102100.84;105372;1286;71645;-53
2024/01/31 06:14:08;;;;;;;;;;;;;;;5.46;81.46;102103.48;105395;1286;61190;-55
2024/01/31 06:16:54;;;;;;;19.60;13.10;;;;;;;5.45;81.34;102103.44;105489;1288;61049;-55
2024/01/31 06:19:40;;;;;;;20.90;12.30;;;;;;;5.46;81.09;102102.96;105452;1284;73138;-53
2024/01/31 06:22:27;;;;;;;18.60;12.60;;;;;;;5.46;81.64;102101.60;105502;1284;67539;-54
2024/01/31 06:25:13;;;;;;;19.10;12.90;;;;;;;5.45;82.11;102104.65;105385;1286;71259;-56
2024/01/31 06:27:59;;;;;;;20.00;12.50;;;;;;;5.44;81.79;102106.00;106611;1286;59494;-57
2024/01/31 06:30:45;;;;;;;22.60;12.40;;;;;;;5.45;81.54;102108.73;106729;1284;59239;-57
2024/01/31 06:33:35;;;;;;;17.20;12.00;;;;;;;5.46;82.12;102115.80;106809;1285;75077;-56
2024/01/31 06:36:21;;;;;;;18.40;11.50;;;;;;;5.48;82.00;102113.47;106798;1284;69009;-56
2024/01/31 06:39:07;;;;;;;20.10;11.90;;;;;;;5.53;81.75;102114.63;106731;1285;71101;-57
2024/01/31 06:41:53;;;;;;;19.30;12.40;;;;;;;5.54;81.94;102113.63;106771;1285;59342;-57
2024/01/31 06:44:39;;;;;;;18.40;13.10;;;;;;;5.56;81.83;102116.77;106761;1288;58924;-56
2024/01/31 06:47:25;;;;;;;19.30;12.20;;;;;;;5.57;82.10;102122.45;106623;1284;73290;-57
2024/01/31 06:50:11;;;;;;;20.20;12.50;;;;;;;5.56;82.46;102125.34;106773;1287;68486;-57
2024/01/31 06:52:57;;;;;;;17.20;11.80;;;;;;;5.58;81.91;102123.52;106669;1284;72465;-56
2024/01/31 06:55:43;;;;;;;17.30;12.50;;;;;;;5.59;82.22;102122.86;106764;1286;58920;-57
2024/01/31 06:58:31;;;;;;;18.10;11.80;;;;;;;5.59;81.92;102127.98;106748;1287;59348;-57
2024/01/31 07:01:18;;;;;;;16.60;11.40;;;;;;;5.59;82.15;102130.38;106757;1284;73392;-57
2024/01/31 07:04:03;;;;;;;14.40;11.40;;;;;;;5.64;82.18;102133.27;106767;1286;68405;-57
2024/01/31 07:06:49;;;;;;;16.30;10.90;;;;;;;5.66;81.95;102136.55;106772;1286;72342;-57
2024/01/31 07:09:35;;;;;;;17.00;12.10;;;;;;;5.70;82.06;102137.35;106797;1284;59093;-56
2024/01/31 07:12:21;;;;;;;17.40;10.80;;;;;;;5.74;82.00;102143.60;106809;1283;59077;-57
2024/01/31 07:15:08;;;;;;;15.30;10.90;;;;;;;5.77;82.13;102145.73;106800;1286;73360;-56
2024/01/31 07:17:54;;;;;;;14.30;9.60;;;;;;;5.80;81.84;102146.84;106834;1284;68082;-56
2024/01/31 07:20:39;;;;;;;17.40;10.40;;;;;;;5.80;82.05;102151.81;106815;1283;71113;-56
2024/01/31 07:23:26;;;;;;;16.10;10.90;;;;;;;5.86;81.86;102153.20;106785;1286;59172;-57
2024/01/31 07:26:21;;;;;;;17.10;9.60;;;;;;;5.89;81.95;102160.30;106774;1285;59898;-57
2024/01/31 07:29:10;;;;;;;19.10;10.50;;;;;;;5.93;81.82;102160.27;106623;1283;74515;-56
2024/01/31 07:31:56;;;;;;;18.90;11.00;;;;;;;5.96;81.73;102165.66;106786;1288;67249;-56
2024/01/31 07:34:42;;;;;;;14.00;9.40;;;;;;;5.96;82.34;102163.26;106807;1285;73163;-56
2024/01/31 07:37:28;;;;;;;11.70;9.30;;;;;;;5.97;82.22;102161.90;106779;1285;58931;-57
2024/01/31 07:40:14;;;;;;;13.70;9.60;;;;;;;5.99;82.21;102168.14;106729;1286;59038;-57
2024/01/31 07:43:00;;;;;;;14.50;10.30;;;;;;;6.00;82.09;102166.61;106788;1284;74406;-56
2024/01/31 07:45:45;;;;;;;14.90;10.20;;;;;;;6.02;82.26;102172.50;106805;1284;67109;-57
2024/01/31 07:48:31;;;;;;;15.00;9.10;;;;;;;6.05;82.18;102175.14;106734;1285;71390;-57
2024/01/31 07:51:18;;;;;;;17.00;9.40;;;;;;;6.09;82.40;102178.33;106771;1286;59112;-57
2024/01/31 07:54:04;;;;;;;10.00;8.00;;;;;;;6.12;82.23;102183.89;106727;1286;60045;-56
2024/01/31 07:56:50;;;;;;;12.50;8.70;;;;;;;6.18;82.08;102184.39;106831;1286;73909;-57
2024/01/31 07:59:36;;;;;;;15.10;8.90;;;;;;;6.20;82.09;102182.23;106805;1286;67796;-57
2024/01/31 08:02:22;;;;;;;11.80;8.10;;;;;;;6.22;82.03;102179.38;106696;1287;71349;-57
2024/01/31 08:05:08;;;;;;;11.70;7.60;;;;;;;6.25;82.08;102178.76;106782;1286;59009;-57
2024/01/31 08:07:54;;;;;;;10.20;7.80;;;;;;;6.28;81.95;102178.65;106723;1288;59039;-57
2024/01/31 08:10:40;;;;;;;12.60;7.40;;;;;;;6.33;82.07;102182.55;106795;1285;73406;-57
2024/01/31 08:13:26;;;;;;;10.30;7.30;;;;;;;6.37;82.00;102186.23;106789;1287;68016;-57
2024/01/31 08:16:12;;;;;;;11.20;6.50;;;;;;;6.41;81.97;102186.17;106717;1286;71140;-57
2024/01/31 08:18:58;;;;;;;7.60;6.40;;;;;;;6.44;81.98;102190.71;106673;1285;59346;-57
2024/01/31 08:21:44;;;;;;;7.30;6.50;;;;;;;6.45;81.99;102191.79;106703;1286;88566;-57
2024/01/31 08:24:30;;;;;;;6.20;5.50;;;;;;;6.47;82.02;102197.48;106767;1284;73351;-55
2024/01/31 08:27:18;;;;;;;5.80;4.80;;;;;;;6.49;81.96;102203.52;106798;1285;68255;-56
2024/01/31 08:30:05;;;;;;;7.20;4.40;;;;;;;6.54;81.97;102206.06;106798;1287;72226;-57
2024/01/31 08:32:51;;;;;;;5.20;4.20;;;;;;;6.55;81.97;102209.86;106765;1282;58931;-56
2024/01/31 08:35:37;;;;;;;8.10;3.80;;;;;;;6.58;81.98;102211.15;106818;1284;59112;-57
2024/01/31 08:38:23;;;;;;;5.40;3.80;;;;;;;6.61;81.95;102212.58;106808;1284;73322;-56
2024/01/31 08:41:11;;;;;;;4.50;3.70;;;;;;;6.64;81.98;102213.34;106701;1283;68738;-57
2024/01/31 08:43:57;;;;;;;4.80;3.50;;;;;;;6.66;81.89;102207.41;106788;1287;72210;-57
2024/01/31 08:46:43;;;;;;;3.60;3.30;;;;;;;6.71;81.86;102211.98;106778;1288;59198;-57
2024/01/31 08:49:29;;;;;;;5.00;3.70;;;;;;;6.74;81.78;102213.08;106678;1286;59473;-57
2024/01/31 08:52:15;;;;;;;3.40;3.10;;;;;;;6.76;81.76;102212.10;106825;1286;73266;-56
2024/01/31 08:55:01;;;;;;;4.00;2.80;;;;;;;6.75;81.88;102211.41;106812;1287;67343;-57
2024/01/31 08:57:47;;;;;;;4.90;4.00;;;;;;;6.77;81.75;102213.64;106779;1286;71252;-57
2024/01/31 09:00:33;;;;;;;3.50;2.90;;;;;;;6.78;81.80;102213.33;106739;1286;58969;-57
2024/01/31 09:03:19;;;;;;;5.50;2.60;;;;;;;6.77;81.65;102212.29;106788;1286;59272;-56
2024/01/31 09:06:05;;;;;;;4.20;2.50;;;;;;;6.80;81.74;102213.20;106760;1287;73809;-57
2024/01/31 09:08:51;;;;;;;3.20;2.60;;;;;;;6.82;81.61;102211.02;106750;1284;67931;-57
2024/01/31 09:11:37;;;;;;;3.40;2.50;;;;;;;6.82;81.73;102210.19;106780;1285;72095;-57
2024/01/31 09:14:23;;;;;;;3.10;1.90;;;;;;;6.83;81.77;102211.77;106808;1286;58973;-57
2024/01/31 09:17:09;;;;;;;2.30;2.10;;;;;;;6.83;81.76;102215.69;106809;1284;58991;-57
2024/01/31 09:19:55;;;;;;;3.60;1.90;;;;;;;6.84;81.74;102217.95;105579;1286;75485;-56
2024/01/31 09:22:41;;;;;;;3.80;2.20;;;;;;;6.89;81.77;102217.05;105496;1286;67754;-57
2024/01/31 09:25:27;;;;;;;3.50;2.20;;;;;;;6.96;81.76;102212.92;105538;1287;75323;-56
2024/01/31 09:28:14;;;;;;;2.00;1.70;;;;;;;7.04;81.63;102211.58;105498;1286;61206;-56
2024/01/31 09:31:00;;;;;;;4.10;2.00;;;;;;;7.12;81.64;102213.67;105380;1286;61154;-56
2024/01/31 09:33:47;;;;;;;2.30;1.90;;;;;;;7.22;81.45;102214.58;105417;1284;73216;-56
2024/01/31 09:36:33;;;;;;;4.30;2.50;;;;;;;7.19;81.10;102218.98;105441;1286;71947;-55
2024/01/31 09:39:20;;;;;;;1.80;1.70;;;;;;;7.16;81.26;102215.48;105447;1287;71307;-55
2024/01/31 09:42:06;;;;;;;2.60;1.80;;;;;;;7.14;81.08;102222.79;105429;1283;61304;-56
2024/01/31 09:44:57;;;;;;;2.60;1.30;;;;;;;7.11;81.05;102222.54;105409;1285;61720;-55
2024/01/31 09:47:45;;;;;;;1.90;1.30;;;;;;;7.06;80.97;102227.05;105441;1283;73867;-56
2024/01/31 09:50:32;;;;;;;1.50;1.20;;;;;;;7.02;81.14;102227.47;106638;1286;68128;-58
2024/01/31 09:53:19;;;;;;;1.60;1.40;;;;;;;7.01;81.05;102224.70;106722;1285;71913;-57
2024/01/31 09:56:06;;;;;;;9.60;4.50;;;;;;;6.99;81.09;102225.69;106719;1288;59036;-57
2024/01/31 09:58:54;;;;;;;2.80;1.40;;;;;;;6.95;81.00;102229.71;106669;1288;59688;-57
2024/01/31 10:01:40;;;;;;;2.00;1.20;;;;;;;6.91;80.99;102224.82;106755;1283;74181;-57
2024/01/31 10:04:26;;;;;;;1.40;1.20;;;;;;;6.90;80.98;102223.23;106671;1283;68338;-57
2024/01/31 10:07:21;;;;;;;2.90;1.30;;;;;;;6.90;81.01;102218.60;106703;1287;72194;-57
2024/01/31 10:10:09;;;;;;;1.50;1.20;;;;;;;6.93;81.07;102218.33;106634;1285;58913;-57
2024/01/31 10:12:55;;;;;;;98.40;38.40;;;;;;;6.96;81.12;102219.29;106683;1283;59744;-57
2024/01/31 10:15:42;;;;;;;1.70;1.00;;;;;;;6.92;81.00;102215.23;106703;1286;73176;-58
2024/01/31 10:18:28;;;;;;;1.50;1.00;;;;;;;6.85;81.12;102217.79;106643;1287;67371;-57
2024/01/31 10:21:19;;;;;;;1.20;1.10;;;;;;;6.85;81.19;102213.67;106587;1286;72415;-58
2024/01/31 10:24:05;;;;;;;2.90;1.20;;;;;;;6.83;81.25;102211.24;106652;1286;59137;-58
2024/01/31 10:26:51;;;;;;;2.90;1.10;;;;;;;6.82;81.10;102206.25;106639;1286;60593;-58
2024/01/31 10:29:37;;;;;;;2.10;1.10;;;;;;;6.79;81.16;102205.30;106642;1288;74313;-56
2024/01/31 10:32:23;;;;;;;2.10;1.40;;;;;;;6.76;81.17;102207.64;106727;1283;68104;-58
2024/01/31 10:35:10;;;;;;;2.00;1.30;;;;;;;6.74;81.22;102211.05;106644;1286;72707;-57
2024/01/31 10:37:56;;;;;;;1.80;1.40;;;;;;;6.70;81.18;102206.30;106701;1283;59235;-57
2024/01/31 10:40:42;;;;;;;2.10;1.00;;;;;;;6.68;81.25;102207.45;106693;1284;60123;-56
2024/01/31 10:43:29;;;;;;;1.60;1.10;;;;;;;6.70;81.22;102204.92;106668;1286;73307;-57
2024/01/31 10:46:23;;;;;;;1.80;1.20;;;;;;;6.76;81.29;102202.67;106727;1286;67479;-58
2024/01/31 10:49:16;;;;;;;1.70;0.90;;;;;;;6.84;81.19;102199.10;106700;1285;71344;-57
2024/01/31 10:52:05;;;;;;;0.90;0.70;;;;;;;6.92;80.95;102205.64;106689;1284;59316;-57
2024/01/31 10:54:55;;;;;;;1.20;1.00;;;;;;;6.88;80.61;102211.20;106718;1285;59053;-57
2024/01/31 10:57:42;;;;;;;2.60;1.40;;;;;;;6.84;80.63;102216.05;106666;1286;73087;-57
2024/01/31 11:00:28;;;;;;;2.30;1.30;;;;;;;6.81;80.62;102217.17;106703;1283;67403;-58
2024/01/31 11:03:16;;;;;;;1.90;1.40;;;;;;;6.80;80.68;102220.59;106672;1287;71638;-57
2024/01/31 11:06:03;;;;;;;8.50;1.70;;;;;;;6.77;80.39;102221.36;106545;1286;58899;-58
2024/01/31 11:08:49;;;;;;;3.00;1.10;;;;;;;6.75;80.34;102223.05;106694;1285;58947;-57
2024/01/31 11:11:35;;;;;;;1.40;1.10;;;;;;;6.75;80.46;102226.14;106745;1283;73645;-58
2024/01/31 11:14:28;;;;;;;1.30;1.10;;;;;;;6.74;80.31;102227.84;106721;1284;67398;-57
2024/01/31 11:17:18;;;;;;;2.10;1.20;;;;;;;6.69;80.19;102230.97;106730;1285;71451;-57
2024/01/31 11:20:09;;;;;;;1.00;0.80;;;;;;;6.68;80.29;102229.20;106627;1284;58922;-57
2024/01/31 11:22:57;;;;;;;4.20;1.20;;;;;;;6.66;80.14;102222.83;106409;1284;59607;-57
2024/01/31 11:25:43;;;;;;;1.00;0.70;;;;;;;6.61;80.10;102224.58;106589;1285;73596;-57
2024/01/31 11:28:29;;;;;;;1.30;0.90;;;;;;;6.57;80.15;102229.61;106629;1286;66972;-57
2024/01/31 11:31:15;;;;;;;1.70;1.30;;;;;;;6.52;80.23;102218.34;106648;1288;72323;-57
2024/01/31 11:34:01;;;;;;;0.90;0.80;;;;;;;6.51;80.28;102215.94;106621;1285;59109;-57
2024/01/31 11:36:47;;;;;;;2.20;0.90;;;;;;;6.52;80.33;102214.40;106590;1286;59990;-56
2024/01/31 11:39:33;;;;;;;1.80;0.90;;;;;;;6.56;80.09;102217.77;106603;1283;74186;-55
2024/01/31 11:42:20;;;;;;;1.40;0.70;;;;;;;6.53;80.06;102215.98;106575;1285;68419;-56
2024/01/31 11:45:06;;;;;;;2.20;0.70;;;;;;;6.53;80.04;102219.06;106531;1284;72483;-56
2024/01/31 11:47:56;;;;;;;;;;;;;;;6.53;79.99;102222.14;106642;1286;59299;-56
2024/01/31 11:50:42;;;;;;;1.50;0.70;;;;;;;6.53;79.99;102224.02;106651;1283;59099;-57
2024/01/31 11:53:28;;;;;;;2.20;0.90;;;;;;;6.52;80.04;102223.47;106623;1285;73845;-57
2024/01/31 11:56:14;;;;;;;1.40;1.20;;;;;;;6.51;80.04;102216.25;106686;1286;69108;-57
2024/01/31 11:59:01;;;;;;;2.00;0.80;;;;;;;6.50;80.11;102214.00;106752;1283;72685;-57
2024/01/31 12:01:47;;;;;;;1.00;0.90;;;;;;;6.51;80.06;102221.22;106619;1286;59096;-54
2024/01/31 12:04:33;;;;;;;1.70;1.00;;;;;;;6.47;80.10;102231.56;106707;1283;59327;-56
2024/01/31 12:07:19;;;;;;;0.90;0.80;;;;;;;6.45;80.02;102232.70;106715;1283;73344;-58
2024/01/31 12:10:09;;;;;;;40.90;4.40;;;;;;;6.40;80.02;102232.05;106642;1283;67115;-57
2024/01/31 12:12:57;;;;;;;0.60;0.60;;;;;;;6.34;79.96;102225.38;106689;1288;71171;-57
2024/01/31 12:15:46;;;;;;;1.00;0.70;;;;;;;6.34;80.04;102219.90;84505;1285;10001775;-57
2024/01/31 12:18:32;;;;;;;3.10;1.00;;;;;;;6.31;80.09;102214.19;106631;1283;58984;-57
2024/01/31 12:21:19;;;;;;;1.90;1.70;;;;;;;6.33;80.16;102217.84;106685;1288;58949;-57
2024/01/31 12:24:05;;;;;;;1.90;1.40;;;;;;;6.31;80.16;102213.33;105568;1286;73321;-57
2024/01/31 12:26:51;;;;;;;;;;;;;;;6.28;80.11;102213.94;105431;1285;67151;-57
2024/01/31 12:29:37;;;;;;;;;;;;;;;6.24;80.04;102206.14;105375;1285;71252;-56
2024/01/31 12:32:25;;;;;;;1.80;1.30;;;;;;;6.21;80.12;102206.05;105176;1287;61294;-54
2024/01/31 12:35:11;;;;;;;1.80;1.30;;;;;;;6.18;80.10;102206.33;106649;1286;59981;-57
2024/01/31 12:37:57;;;;;;;2.70;1.00;;;;;;;6.14;80.06;102200.23;106680;1288;74533;-56
2024/01/31 12:40:43;;;;;;;3.00;1.40;;;;;;;6.11;79.98;102200.66;106597;1288;68893;-57
2024/01/31 12:43:29;;;;;;;2.70;1.80;;;;;;;6.09;80.06;102190.66;106710;1282;71686;-57
2024/01/31 12:46:15;;;;;;;3.10;2.00;;;;;;;6.05;79.98;102191.23;106603;1285;59259;-56
2024/01/31 12:49:01;;;;;;;3.00;1.80;;;;;;;6.06;79.99;102195.02;106707;1283;60345;-56